Burlington, Illinois
Current Conditions -  °F | °C
As of 11:15 AM on Friday 28 Nov 2014 (Local Time) from KDKB Reporting Station
Overcast Overcast  
Wind Chill:   Ceiling: 12000
Heat Index: 23°   Visibility: 10mi
Dew Point: 16°   Wind: 18mph
Humidity: 75%   Direction: 140°SE
Pressure: 30.09"   Gusts: NA
Location:  42.05°N, 88.55°W
Report Text: KDKB 281715Z AUTO 14016KT 10SM OVC120 M05/M09 A3009 RMK AO2 T10501088
Loading
Personal Weather Stations






























Interactive Weather Map New forecast layout! Learn more

10-Day Weather Forecast

Advertisements
Track Severe Weather on mobile